Time;durP1;ratioP1;P1;durP2;ratioP2;P2;SDS_P1;SDS_P2;PMS_P1;PMS_P2;Temp;Humidity;BMP_temperature;BMP_pressure;BME280_temperature;BME280_humidity;BME280_pressure;Samples;Min_cycle;Max_cycle;Signal;HPM_P1;HPM_P2
2023/12/18 00:00:13;;;;;;;21.42;11.50;;;6.60;99.90;;;;;;5088165;28;20072;-63
2023/12/18 00:02:39;;;;;;;30.63;11.27;;;6.60;99.90;;;;;;5085319;28;20028;-63
2023/12/18 00:05:06;;;;;;;32.42;12.40;;;6.60;99.90;;;;;;5069268;28;20039;-63
2023/12/18 00:07:32;;;;;;;33.80;20.60;;;6.60;99.90;;;;;;5085157;28;20097;-63
2023/12/18 00:09:57;;;;;;;25.42;12.77;;;6.60;99.90;;;;;;5092875;28;20040;-63
2023/12/18 00:12:23;;;;;;;31.55;12.18;;;6.60;99.90;;;;;;5091151;28;20114;-63
2023/12/18 00:14:48;;;;;;;25.27;11.75;;;6.70;99.90;;;;;;5093237;28;20507;-63
2023/12/18 00:17:14;;;;;;;24.38;12.70;;;6.70;99.90;;;;;;5092160;28;20123;-63
2023/12/18 00:19:40;;;;;;;26.35;13.00;;;6.60;99.90;;;;;;5091414;28;20036;-63
2023/12/18 00:22:05;;;;;;;23.15;11.63;;;6.70;99.90;;;;;;5088783;28;20396;-63
2023/12/18 00:24:31;;;;;;;27.13;12.05;;;6.60;99.90;;;;;;5091103;28;20381;-63
2023/12/18 00:26:57;;;;;;;28.92;14.05;;;6.60;99.90;;;;;;5090786;28;20040;-63
2023/12/18 00:29:23;;;;;;;29.27;12.77;;;6.60;99.90;;;;;;5090265;28;20044;-63
2023/12/18 00:31:48;;;;;;;28.35;12.02;;;6.70;99.90;;;;;;5087831;28;20481;-63
2023/12/18 00:34:14;;;;;;;25.67;13.82;;;6.70;99.90;;;;;;5092664;28;20496;-63
2023/12/18 00:36:40;;;;;;;23.55;11.32;;;6.70;99.90;;;;;;5090516;28;20044;-63
2023/12/18 00:39:05;;;;;;;35.33;23.00;;;6.70;99.90;;;;;;5090646;28;20064;-63
2023/12/18 00:41:32;;;;;;;39.05;12.18;;;6.70;99.90;;;;;;5089616;28;20040;-63
2023/12/18 00:43:58;;;;;;;28.30;12.13;;;6.70;99.90;;;;;;5090776;28;20070;-63
2023/12/18 00:46:25;;;;;;;22.90;12.57;;;6.70;99.90;;;;;;5054419;28;20048;-63
2023/12/18 00:48:51;;;;;;;21.85;12.75;;;6.70;99.90;;;;;;5090504;28;20047;-63
2023/12/18 00:51:17;;;;;;;23.55;11.98;;;6.70;99.90;;;;;;5090939;28;20036;-63
2023/12/18 00:53:43;;;;;;;35.05;13.55;;;6.70;99.90;;;;;;5069458;28;20094;-63
2023/12/18 00:56:09;;;;;;;26.92;13.65;;;6.70;99.90;;;;;;5072788;28;20044;-63
2023/12/18 00:58:35;;;;;;;27.40;13.18;;;6.70;99.90;;;;;;5091013;28;20024;-63
2023/12/18 01:01:01;;;;;;;26.88;12.63;;;6.70;99.90;;;;;;5089778;28;20078;-63
2023/12/18 01:03:27;;;;;;;27.35;13.40;;;6.70;99.90;;;;;;5087288;28;20141;-63
2023/12/18 01:05:53;;;;;;;29.95;13.30;;;6.70;99.90;;;;;;5089764;28;20127;-63
2023/12/18 01:08:19;;;;;;;23.02;11.73;;;6.70;99.90;;;;;;5090556;28;20116;-63
2023/12/18 01:10:44;;;;;;;29.52;12.73;;;6.70;99.90;;;;;;5088220;28;20044;-63
2023/12/18 01:13:10;;;;;;;27.55;12.70;;;6.70;99.90;;;;;;5090888;28;20040;-63
2023/12/18 01:15:36;;;;;;;28.05;13.20;;;6.70;99.90;;;;;;5088323;28;20089;-63
2023/12/18 01:18:02;;;;;;;22.23;11.80;;;6.70;99.90;;;;;;5089671;28;20039;-63
2023/12/18 01:20:27;;;;;;;19.67;10.75;;;6.70;99.90;;;;;;5086895;28;20162;-63
2023/12/18 01:22:53;;;;;;;25.13;12.60;;;6.70;99.90;;;;;;5096683;28;20119;-63
2023/12/18 01:25:19;;;;;;;33.25;13.57;;;6.60;99.90;;;;;;5102975;28;20042;-63
2023/12/18 01:27:44;;;;;;;21.77;11.82;;;6.70;99.90;;;;;;5093654;28;20451;-64
2023/12/18 01:30:10;;;;;;;26.33;12.02;;;6.70;99.90;;;;;;5095327;28;20039;-64
2023/12/18 01:32:36;;;;;;;29.65;12.38;;;6.70;99.90;;;;;;5083976;28;20054;-64
2023/12/18 01:35:02;;;;;;;28.55;13.02;;;6.70;99.90;;;;;;5080585;28;20490;-64
2023/12/18 01:37:28;;;;;;;35.50;13.15;;;6.70;99.90;;;;;;5108717;28;20404;-64
2023/12/18 01:39:54;;;;;;;25.48;12.23;;;6.80;99.90;;;;;;5104627;28;20048;-64
2023/12/18 01:42:19;;;;;;;31.00;13.38;;;6.70;99.90;;;;;;5096686;28;20458;-64
2023/12/18 01:44:45;;;;;;;26.73;12.90;;;6.70;99.90;;;;;;5089232;28;20047;-64
2023/12/18 01:47:12;;;;;;;40.78;22.90;;;6.80;99.90;;;;;;5089823;28;20583;-64
2023/12/18 01:49:38;;;;;;;23.20;12.10;;;6.80;99.90;;;;;;5091904;28;21585;-64
2023/12/18 01:52:04;;;;;;;29.02;13.38;;;6.80;99.90;;;;;;5094610;28;20118;-63
2023/12/18 01:54:31;;;;;;;24.70;11.10;;;6.80;99.90;;;;;;5090996;28;20040;-63
2023/12/18 01:56:59;;;;;;;21.27;11.82;;;6.80;99.90;;;;;;5092542;28;20043;-64
2023/12/18 01:59:25;;;;;;;21.52;12.63;;;6.80;99.90;;;;;;5087565;28;20090;-63
2023/12/18 02:01:51;;;;;;;27.13;13.13;;;6.80;99.90;;;;;;5085578;28;20067;-64
2023/12/18 02:04:18;;;;;;;20.98;11.70;;;6.80;99.90;;;;;;5086060;28;20034;-63
2023/12/18 02:06:44;;;;;;;33.50;12.18;;;6.80;99.90;;;;;;5089237;28;20127;-63
2023/12/18 02:09:11;;;;;;;21.52;11.82;;;6.80;99.90;;;;;;5070666;28;20048;-63
2023/12/18 02:11:37;;;;;;;34.45;12.23;;;6.80;99.90;;;;;;5086217;28;20044;-63
2023/12/18 02:14:05;;;;;;;37.92;13.40;;;6.80;99.90;;;;;;5088070;28;20039;-63
2023/12/18 02:16:31;;;;;;;39.10;22.95;;;6.80;99.90;;;;;;5085312;28;20120;-64
2023/12/18 02:18:57;;;;;;;23.33;12.52;;;6.90;99.90;;;;;;5090404;28;20040;-63
2023/12/18 02:21:22;;;;;;;24.83;10.95;;;6.90;99.90;;;;;;5087480;28;20044;-64
2023/12/18 02:23:49;;;;;;;36.92;14.93;;;6.80;99.90;;;;;;5089041;28;20036;-64
2023/12/18 02:26:16;;;;;;;36.05;14.07;;;6.90;99.90;;;;;;5086951;28;20044;-64
2023/12/18 02:28:43;;;;;;;27.33;14.35;;;6.80;99.90;;;;;;5084568;28;20040;-64
2023/12/18 02:31:15;;;;;;;22.15;11.85;;;6.80;99.90;;;;;;5082548;28;20044;-64
2023/12/18 02:33:41;;;;;;;26.67;13.27;;;6.90;99.90;;;;;;5085562;28;20493;-64
2023/12/18 02:36:07;;;;;;;29.25;13.48;;;6.80;99.90;;;;;;5088957;28;20519;-64
2023/12/18 02:38:34;;;;;;;23.63;12.43;;;6.80;99.90;;;;;;5085220;28;20039;-64
2023/12/18 02:41:00;;;;;;;24.50;13.18;;;6.80;99.90;;;;;;5085542;28;20052;-64
2023/12/18 02:43:26;;;;;;;28.92;13.93;;;6.90;99.90;;;;;;5085781;28;20111;-64
2023/12/18 02:45:51;;;;;;;28.08;13.25;;;6.80;99.90;;;;;;5090879;28;20506;-64
2023/12/18 02:48:17;;;;;;;35.92;24.10;;;6.80;99.90;;;;;;5091561;28;20468;-64
2023/12/18 02:50:43;;;;;;;34.28;13.75;;;6.80;99.90;;;;;;5086846;28;20068;-64
2023/12/18 02:53:08;;;;;;;33.95;13.23;;;6.90;99.90;;;;;;5088695;28;20032;-63
2023/12/18 02:55:34;;;;;;;33.33;14.02;;;6.90;99.90;;;;;;5068122;28;20166;-64
2023/12/18 02:58:00;;;;;;;30.70;13.82;;;6.90;99.90;;;;;;5083096;28;20033;-64
2023/12/18 03:00:26;;;;;;;39.65;24.08;;;6.90;99.90;;;;;;5086485;28;20225;-64
2023/12/18 03:02:51;;;;;;;30.33;13.48;;;6.90;99.90;;;;;;5086309;28;20044;-63
2023/12/18 03:05:17;;;;;;;31.42;14.27;;;6.90;99.90;;;;;;5089375;28;20035;-63
2023/12/18 03:07:43;;;;;;;28.63;12.57;;;6.90;99.90;;;;;;5087671;28;20529;-63
2023/12/18 03:10:09;;;;;;;27.75;15.25;;;6.90;99.90;;;;;;5088241;28;20075;-63
2023/12/18 03:12:34;;;;;;;32.05;15.13;;;6.90;99.90;;;;;;5087326;28;20036;-64
2023/12/18 03:15:00;;;;;;;32.97;13.60;;;6.90;99.90;;;;;;5069628;28;20043;-63
2023/12/18 03:17:26;;;;;;;29.92;15.30;;;6.90;99.90;;;;;;5085638;28;20556;-63
2023/12/18 03:19:51;;;;;;;36.83;15.07;;;6.90;99.90;;;;;;5091283;28;20032;-63
2023/12/18 03:22:17;;;;;;;34.53;16.05;;;6.90;99.90;;;;;;5083344;28;20065;-64
2023/12/18 03:24:43;;;;;;;36.95;24.90;;;6.90;99.90;;;;;;5066315;28;20058;-64
2023/12/18 03:27:09;;;;;;;25.92;14.98;;;7.00;99.90;;;;;;5086369;28;20405;-64
2023/12/18 03:29:35;;;;;;;38.88;24.65;;;6.90;99.90;;;;;;5086297;28;20036;-64
2023/12/18 03:32:03;;;;;;;29.35;14.13;;;6.90;99.90;;;;;;5084991;28;20048;-64
2023/12/18 03:34:30;;;;;;;31.83;14.77;;;6.90;99.90;;;;;;5090233;28;20039;-64
2023/12/18 03:36:55;;;;;;;25.55;13.20;;;6.90;99.90;;;;;;5086025;28;20044;-64
2023/12/18 03:39:21;;;;;;;23.77;12.85;;;6.90;99.90;;;;;;5091042;28;20039;-64
2023/12/18 03:41:47;;;;;;;31.27;14.05;;;6.90;99.90;;;;;;5085157;28;20189;-64
2023/12/18 03:44:12;;;;;;;25.83;12.95;;;6.90;99.90;;;;;;5092102;28;20040;-64
2023/12/18 03:46:38;;;;;;;25.25;12.82;;;7.00;99.90;;;;;;5089612;28;20448;-64
2023/12/18 03:49:04;;;;;;;24.52;13.82;;;7.00;99.90;;;;;;5090842;28;20122;-64
2023/12/18 03:51:29;;;;;;;27.90;13.10;;;7.00;99.90;;;;;;5094752;28;20052;-64
2023/12/18 03:53:55;;;;;;;28.88;13.85;;;7.00;99.90;;;;;;5092292;28;20032;-64
2023/12/18 03:56:21;;;;;;;23.70;13.57;;;7.00;99.90;;;;;;5093465;28;20036;-63
2023/12/18 03:58:47;;;;;;;26.15;14.82;;;7.00;99.90;;;;;;5094723;28;20458;-64
2023/12/18 04:01:13;;;;;;;36.67;13.65;;;7.00;99.90;;;;;;5092027;28;20064;-64
2023/12/18 04:03:38;;;;;;;25.80;12.27;;;7.00;99.90;;;;;;5089604;28;20039;-64
2023/12/18 04:06:07;;;;;;;24.75;13.02;;;7.00;99.90;;;;;;5089984;28;20122;-64
2023/12/18 04:08:33;;;;;;;29.77;14.13;;;7.00;99.90;;;;;;5090094;28;20047;-64
2023/12/18 04:10:59;;;;;;;27.63;14.93;;;7.00;99.90;;;;;;5074306;28;20489;-64
2023/12/18 04:13:24;;;;;;;23.55;12.38;;;7.00;99.90;;;;;;5087467;28;20036;-63
2023/12/18 04:15:51;;;;;;;35.05;14.10;;;7.00;99.90;;;;;;5086666;28;20081;-63
2023/12/18 04:18:17;;;;;;;29.92;13.82;;;7.00;99.90;;;;;;5070831;28;20397;-63
2023/12/18 04:20:42;;;;;;;27.88;13.13;;;7.00;99.90;;;;;;5088237;28;20032;-63
2023/12/18 04:23:08;;;;;;;24.50;13.10;;;7.00;99.90;;;;;;5092924;28;20563;-64
2023/12/18 04:25:34;;;;;;;28.20;12.95;;;7.00;99.90;;;;;;5090610;28;20035;-63
2023/12/18 04:28:00;;;;;;;20.63;10.98;;;7.00;99.90;;;;;;5090592;28;20044;-63
2023/12/18 04:30:25;;;;;;;27.55;13.93;;;7.10;99.90;;;;;;5093624;28;20039;-63
2023/12/18 04:32:51;;;;;;;30.30;13.73;;;7.00;99.90;;;;;;5086443;28;20050;-63
2023/12/18 04:35:17;;;;;;;35.25;20.83;;;7.00;99.90;;;;;;5086616;28;20503;-64
2023/12/18 04:37:42;;;;;;;20.85;12.32;;;7.00;99.90;;;;;;5090631;28;20036;-64
2023/12/18 04:40:10;;;;;;;27.05;12.13;;;7.00;99.90;;;;;;5088771;28;20266;-64
2023/12/18 04:42:35;;;;;;;28.58;12.27;;;7.00;99.90;;;;;;5086977;28;20080;-64
2023/12/18 04:45:01;;;;;;;26.58;12.35;;;7.00;99.90;;;;;;5083318;28;20433;-64
2023/12/18 04:47:27;;;;;;;29.48;13.65;;;7.00;99.90;;;;;;5072042;28;20382;-64
2023/12/18 04:49:52;;;;;;;25.65;14.15;;;7.00;99.90;;;;;;5089517;28;20127;-64
2023/12/18 04:52:18;;;;;;;23.50;13.18;;;7.00;99.90;;;;;;5069729;28;20040;-64
2023/12/18 04:54:44;;;;;;;37.28;14.43;;;7.00;99.90;;;;;;5089184;28;20505;-64
2023/12/18 04:57:09;;;;;;;27.00;13.30;;;7.00;99.90;;;;;;5087361;28;20421;-64
2023/12/18 04:59:35;;;;;;;21.33;12.13;;;7.00;99.90;;;;;;5088612;28;20024;-63
2023/12/18 05:02:01;;;;;;;25.65;13.55;;;7.00;99.90;;;;;;5091289;28;20424;-64
2023/12/18 05:04:26;;;;;;;23.17;12.68;;;7.00;99.90;;;;;;5090331;28;20111;-64
2023/12/18 05:06:52;;;;;;;37.85;23.85;;;7.00;99.90;;;;;;5088733;28;20466;-64
2023/12/18 05:09:18;;;;;;;34.33;23.30;;;6.90;99.90;;;;;;5084617;28;20067;-63
2023/12/18 05:11:43;;;;;;;23.77;12.48;;;6.90;99.90;;;;;;5088262;28;20044;-64
2023/12/18 05:14:09;;;;;;;28.90;12.73;;;6.90;99.90;;;;;;5073069;28;20541;-64
2023/12/18 05:16:35;;;;;;;24.30;12.85;;;6.90;99.90;;;;;;5089628;28;20040;-64
2023/12/18 05:19:00;;;;;;;26.10;14.25;;;6.90;99.90;;;;;;5090518;28;20070;-64
2023/12/18 05:21:26;;;;;;;20.17;10.60;;;6.90;99.90;;;;;;5087737;28;20028;-64
2023/12/18 05:23:54;;;;;;;23.13;11.68;;;6.80;99.90;;;;;;5089812;28;20039;-64
2023/12/18 05:26:20;;;;;;;21.92;12.13;;;6.80;99.90;;;;;;5085004;28;20048;-64
2023/12/18 05:28:46;;;;;;;26.42;13.32;;;6.80;99.90;;;;;;5092207;28;20043;-64
2023/12/18 05:31:12;;;;;;;28.45;14.43;;;6.80;99.90;;;;;;5089880;28;20032;-64
2023/12/18 05:33:39;;;;;;;28.52;12.38;;;6.80;99.90;;;;;;5088678;28;20060;-64
2023/12/18 05:36:05;;;;;;;28.23;13.15;;;6.80;99.90;;;;;;5055256;28;20682;-64
2023/12/18 05:38:31;;;;;;;22.10;13.50;;;6.80;99.90;;;;;;5085664;28;20070;-63
2023/12/18 05:40:57;;;;;;;36.95;14.60;;;6.80;99.90;;;;;;5093675;28;20048;-64
2023/12/18 05:43:23;;;;;;;26.08;10.50;;;6.80;99.90;;;;;;5092496;28;20512;-64
2023/12/18 05:45:49;;;;;;;25.15;14.00;;;6.80;99.90;;;;;;5090142;28;20043;-64
2023/12/18 05:48:14;;;;;;;34.53;14.13;;;6.80;99.90;;;;;;5093354;28;20063;-64
2023/12/18 05:50:40;;;;;;;33.42;13.40;;;6.80;99.90;;;;;;5090573;28;20039;-64
2023/12/18 05:53:06;;;;;;;22.73;12.25;;;6.80;99.90;;;;;;5086516;28;20071;-64
2023/12/18 05:55:31;;;;;;;28.95;13.95;;;6.80;99.90;;;;;;5092247;28;20123;-64
2023/12/18 05:57:58;;;;;;;24.77;12.77;;;6.90;99.90;;;;;;5089041;28;20044;-64
2023/12/18 06:00:23;;;;;;;21.75;11.63;;;6.80;99.90;;;;;;5091294;28;20489;-64
2023/12/18 06:02:49;;;;;;;26.30;12.80;;;6.80;99.90;;;;;;5090837;28;20028;-64
2023/12/18 06:05:15;;;;;;;25.55;13.40;;;6.80;99.90;;;;;;5089228;28;20036;-64
2023/12/18 06:07:41;;;;;;;41.38;13.00;;;6.80;99.90;;;;;;5091509;28;20043;-64
2023/12/18 06:10:08;;;;;;;22.80;12.32;;;6.80;99.90;;;;;;5090821;28;20501;-64
2023/12/18 06:12:34;;;;;;;17.60;10.77;;;6.80;99.90;;;;;;5092409;28;20036;-64
2023/12/18 06:15:00;;;;;;;25.95;12.88;;;6.90;99.90;;;;;;5070055;28;20052;-64
2023/12/18 06:17:26;;;;;;;27.67;12.60;;;6.90;99.90;;;;;;5070744;28;20097;-64
2023/12/18 06:19:51;;;;;;;25.17;12.68;;;6.90;99.90;;;;;;5086220;28;20054;-64
2023/12/18 06:22:17;;;;;;;18.20;10.35;;;6.90;99.90;;;;;;5090536;28;20481;-64
2023/12/18 06:24:43;;;;;;;26.00;13.18;;;6.90;99.90;;;;;;5090881;28;20052;-64
2023/12/18 06:27:09;;;;;;;35.38;13.73;;;6.90;99.90;;;;;;5095697;28;20039;-64
2023/12/18 06:29:34;;;;;;;22.25;11.57;;;6.90;99.90;;;;;;5073243;28;20053;-64
2023/12/18 06:32:00;;;;;;;28.50;22.17;;;6.90;99.90;;;;;;5087336;28;20032;-64
2023/12/18 06:34:26;;;;;;;31.05;12.30;;;6.90;99.90;;;;;;5091689;28;20036;-64
2023/12/18 06:36:51;;;;;;;26.65;13.43;;;6.90;99.90;;;;;;5092371;28;20105;-63
2023/12/18 06:39:17;;;;;;;33.00;14.80;;;6.90;99.90;;;;;;5091767;28;20032;-63
2023/12/18 06:41:43;;;;;;;24.08;12.50;;;6.90;99.90;;;;;;5087991;28;20032;-64
2023/12/18 06:44:08;;;;;;;22.42;13.30;;;6.90;99.90;;;;;;5090148;28;20032;-64
2023/12/18 06:46:34;;;;;;;26.05;13.07;;;6.90;99.90;;;;;;5083979;28;20182;-64
2023/12/18 06:49:01;;;;;;;33.88;23.70;;;6.90;99.90;;;;;;5095228;28;20118;-64
2023/12/18 06:51:27;;;;;;;25.80;13.27;;;6.90;99.90;;;;;;5087911;28;20040;-64
2023/12/18 06:53:53;;;;;;;28.17;13.88;;;6.90;99.90;;;;;;5070339;28;20047;-64
2023/12/18 06:56:18;;;;;;;23.10;12.02;;;6.90;99.90;;;;;;5087606;28;20032;-64
2023/12/18 06:58:44;;;;;;;23.95;13.40;;;6.90;99.90;;;;;;5090005;28;20481;-64
2023/12/18 07:01:10;;;;;;;28.77;12.88;;;6.90;99.90;;;;;;5089406;28;20182;-64
2023/12/18 07:03:36;;;;;;;24.63;12.55;;;6.90;99.90;;;;;;5088860;28;20038;-64
2023/12/18 07:06:02;;;;;;;33.25;12.73;;;6.90;99.90;;;;;;5088664;28;20036;-64
2023/12/18 07:08:29;;;;;;;28.88;13.32;;;6.90;99.90;;;;;;5090832;28;20040;-64
2023/12/18 07:10:57;;;;;;;28.83;13.57;;;6.90;99.90;;;;;;5084869;28;20098;-65
2023/12/18 07:13:23;;;;;;;20.77;12.32;;;6.90;99.90;;;;;;5088336;28;20035;-63
2023/12/18 07:15:49;;;;;;;29.15;13.00;;;6.90;99.90;;;;;;5091088;28;20118;-63
2023/12/18 07:18:15;;;;;;;24.35;13.88;;;6.90;99.90;;;;;;5073918;28;20493;-63
2023/12/18 07:20:43;;;;;;;27.20;13.35;;;6.90;99.90;;;;;;5091359;28;20069;-63
2023/12/18 07:23:09;;;;;;;22.00;11.75;;;6.90;99.90;;;;;;5097225;28;20035;-63
2023/12/18 07:25:34;;;;;;;27.17;13.73;;;6.90;99.90;;;;;;5093255;28;20042;-63
2023/12/18 07:28:00;;;;;;;28.63;13.35;;;6.90;99.90;;;;;;5078938;28;20451;-64
2023/12/18 07:30:26;;;;;;;44.50;25.20;;;6.90;99.90;;;;;;5092312;28;20035;-64
2023/12/18 07:32:52;;;;;;;24.42;14.35;;;6.90;99.90;;;;;;5079038;28;20039;-64
2023/12/18 07:35:18;;;;;;;27.08;14.15;;;7.00;99.90;;;;;;5073221;28;20113;-64
2023/12/18 07:37:43;;;;;;;27.30;14.48;;;7.00;99.90;;;;;;5095104;28;20036;-64
2023/12/18 07:40:10;;;;;;;25.55;11.77;;;7.00;99.90;;;;;;5091129;28;20059;-64
2023/12/18 07:42:36;;;;;;;27.90;14.82;;;6.90;99.90;;;;;;5093551;28;20095;-64
2023/12/18 07:45:02;;;;;;;30.33;13.10;;;6.90;99.90;;;;;;5083422;28;20327;-64
2023/12/18 07:47:28;;;;;;;27.95;13.30;;;6.90;99.90;;;;;;5074276;28;20048;-63
2023/12/18 07:49:54;;;;;;;23.08;13.15;;;6.90;99.90;;;;;;5075490;28;20290;-64
2023/12/18 07:52:19;;;;;;;24.70;13.52;;;6.90;99.90;;;;;;5075746;28;20845;-64
2023/12/18 07:54:45;;;;;;;24.58;13.45;;;6.90;99.90;;;;;;5074154;28;20123;-64
2023/12/18 07:57:11;;;;;;;32.50;14.38;;;6.90;99.90;;;;;;5041698;28;20503;-64
2023/12/18 07:59:39;;;;;;;31.35;14.57;;;7.00;99.90;;;;;;5078354;28;20393;-64
2023/12/18 08:02:08;;;;;;;28.63;15.13;;;7.00;99.90;;;;;;5078513;28;20109;-64
2023/12/18 08:04:35;;;;;;;27.10;14.32;;;7.00;99.90;;;;;;5077803;28;20048;-64
2023/12/18 08:07:02;;;;;;;32.90;14.20;;;7.00;99.90;;;;;;5077643;28;20048;-64
2023/12/18 08:09:27;;;;;;;31.27;13.35;;;7.00;99.90;;;;;;5077857;28;20050;-64
2023/12/18 08:11:54;;;;;;;27.85;14.68;;;7.00;99.90;;;;;;5077736;28;20123;-64
2023/12/18 08:14:20;;;;;;;27.58;15.85;;;7.10;99.90;;;;;;5078911;28;20040;-64
2023/12/18 08:16:45;;;;;;;36.67;15.38;;;7.10;99.90;;;;;;5078523;28;20035;-64
2023/12/18 08:19:11;;;;;;;28.42;14.00;;;7.10;99.90;;;;;;5078318;28;20040;-64
2023/12/18 08:21:37;;;;;;;26.02;14.23;;;7.10;99.90;;;;;;5079231;28;20032;-64
2023/12/18 08:24:03;;;;;;;33.30;15.15;;;7.10;99.90;;;;;;5060139;28;20337;-64
2023/12/18 08:26:28;;;;;;;26.35;12.63;;;7.10;99.90;;;;;;5079766;28;20101;-64
2023/12/18 08:28:54;;;;;;;28.65;14.15;;;7.10;99.90;;;;;;5077798;28;20048;-64
2023/12/18 08:31:20;;;;;;;27.58;13.77;;;7.10;99.90;;;;;;5080713;28;20036;-64
2023/12/18 08:33:45;;;;;;;27.02;12.52;;;7.10;99.90;;;;;;5062402;28;20051;-64
2023/12/18 08:36:11;;;;;;;27.48;13.45;;;7.10;99.90;;;;;;5090074;28;20036;-64
2023/12/18 08:38:37;;;;;;;24.65;12.80;;;7.10;99.90;;;;;;5079549;28;20119;-64
2023/12/18 08:41:03;;;;;;;26.98;15.57;;;7.10;99.90;;;;;;5079483;28;20044;-64
2023/12/18 08:43:29;;;;;;;24.65;13.88;;;7.10;99.90;;;;;;5078129;28;20377;-64
2023/12/18 08:45:54;;;;;;;35.53;26.23;;;7.10;99.90;;;;;;5079521;28;20039;-64
2023/12/18 08:48:20;;;;;;;29.52;12.90;;;7.20;99.90;;;;;;5080849;28;20047;-63
2023/12/18 08:50:46;;;;;;;31.13;12.55;;;7.20;99.90;;;;;;5078266;28;20043;-64
2023/12/18 08:53:11;;;;;;;30.00;15.10;;;7.20;99.90;;;;;;5078149;28;20101;-64
2023/12/18 08:55:41;;;;;;;39.85;26.63;;;7.20;99.90;;;;;;5078085;28;20549;-64
2023/12/18 08:58:12;;;;;;;29.95;13.75;;;7.20;99.90;;;;;;5077998;28;20036;-64
2023/12/18 09:00:38;;;;;;;33.65;14.50;;;7.20;99.90;;;;;;5079399;28;20485;-64
2023/12/18 09:03:04;;;;;;;27.88;14.70;;;7.20;99.90;;;;;;5077817;28;20036;-64
2023/12/18 09:05:33;;;;;;;32.95;15.55;;;7.20;99.90;;;;;;5078596;28;20028;-64
2023/12/18 09:08:00;;;;;;;24.80;13.77;;;7.20;99.90;;;;;;5060368;28;20051;-64
2023/12/18 09:10:25;;;;;;;21.77;12.32;;;7.20;99.90;;;;;;5078135;28;20036;-64
2023/12/18 09:12:52;;;;;;;27.17;13.50;;;7.20;99.90;;;;;;5075623;28;20401;-64
2023/12/18 09:15:19;;;;;;;33.45;15.35;;;7.20;99.90;;;;;;5074713;28;20454;-64
2023/12/18 09:17:44;;;;;;;28.83;15.63;;;7.30;99.90;;;;;;5079417;28;20052;-64
2023/12/18 09:20:10;;;;;;;28.10;15.65;;;7.20;99.90;;;;;;5078355;28;20048;-64
2023/12/18 09:22:36;;;;;;;51.75;27.73;;;7.20;99.90;;;;;;5044795;28;20048;-63
2023/12/18 09:25:03;;;;;;;28.83;13.60;;;7.20;99.90;;;;;;5078638;28;20034;-64
2023/12/18 09:27:29;;;;;;;34.50;14.88;;;7.20;99.90;;;;;;5058804;28;20489;-64
2023/12/18 09:29:55;;;;;;;31.80;16.55;;;7.30;99.90;;;;;;5075818;28;20051;-63
2023/12/18 09:32:21;;;;;;;31.77;16.63;;;7.20;99.90;;;;;;5075546;28;20059;-64
2023/12/18 09:34:47;;;;;;;38.15;27.63;;;7.30;99.90;;;;;;5074855;28;20143;-64
2023/12/18 09:37:13;;;;;;;49.65;28.50;;;7.30;99.90;;;;;;5074935;28;20036;-64
2023/12/18 09:39:42;;;;;;;27.73;14.48;;;7.30;99.90;;;;;;5074861;28;20051;-64
2023/12/18 09:42:11;;;;;;;34.00;15.85;;;7.30;99.90;;;;;;5076670;28;20123;-64
2023/12/18 09:44:38;;;;;;;32.97;16.77;;;7.30;99.90;;;;;;5076192;28;20034;-64
2023/12/18 09:47:04;;;;;;;27.33;15.98;;;7.30;99.90;;;;;;5075423;28;20068;-64
2023/12/18 09:49:30;;;;;;;33.75;16.52;;;7.30;99.90;;;;;;5074887;28;20071;-64
2023/12/18 09:52:08;;;;;;;37.72;15.70;;;7.30;99.90;;;;;;5072767;28;20058;-64
2023/12/18 09:54:35;;;;;;;34.38;16.75;;;7.30;99.90;;;;;;5075568;28;20048;-63
2023/12/18 09:57:07;;;;;;;38.92;16.42;;;7.40;99.90;;;;;;5073975;28;20070;-64
2023/12/18 09:59:33;;;;;;;37.35;27.48;;;7.40;99.90;;;;;;5057805;28;20047;-64
2023/12/18 10:01:59;;;;;;;42.55;28.98;;;7.40;99.90;;;;;;5075856;28;20032;-64
2023/12/18 10:04:25;;;;;;;35.15;16.95;;;7.40;99.90;;;;;;5075439;28;20060;-64
2023/12/18 10:06:51;;;;;;;30.08;15.65;;;7.40;99.90;;;;;;5073883;28;20071;-64
2023/12/18 10:09:18;;;;;;;44.08;29.42;;;7.40;99.90;;;;;;5077735;28;20069;-63
2023/12/18 10:11:46;;;;;;;35.90;16.33;;;7.40;99.90;;;;;;5076580;28;20101;-64
2023/12/18 10:14:13;;;;;;;31.00;15.25;;;7.40;99.90;;;;;;5078502;28;20436;-64
2023/12/18 10:16:39;;;;;;;29.10;14.27;;;7.40;99.90;;;;;;5075866;28;20036;-64
2023/12/18 10:19:06;;;;;;;40.33;18.45;;;7.40;99.90;;;;;;5077053;28;20043;-64
2023/12/18 10:21:32;;;;;;;34.42;17.13;;;7.40;99.90;;;;;;5077042;28;20055;-64
2023/12/18 10:23:58;;;;;;;40.55;19.23;;;7.40;99.90;;;;;;5077574;28;20032;-63
2023/12/18 10:26:24;;;;;;;28.08;13.90;;;7.40;99.90;;;;;;5075945;28;20396;-64
2023/12/18 10:28:51;;;;;;;42.08;18.85;;;7.40;99.90;;;;;;5078648;28;20044;-64
2023/12/18 10:31:20;;;;;;;35.42;18.40;;;7.40;99.90;;;;;;5076774;28;20039;-64
2023/12/18 10:33:46;;;;;;;46.05;31.65;;;7.40;99.90;;;;;;5077493;28;20036;-64
2023/12/18 10:36:16;;;;;;;37.58;18.70;;;7.40;99.90;;;;;;5078022;28;20534;-64
2023/12/18 10:38:55;;;;;;;45.85;30.63;;;7.50;99.90;;;;;;5075902;28;20457;-64
2023/12/18 10:41:21;;;;;;;38.78;18.17;;;7.50;99.90;;;;;;5058619;28;20055;-64
2023/12/18 10:43:49;;;;;;;33.63;13.98;;;7.50;99.90;;;;;;5078504;28;20389;-64
2023/12/18 10:46:15;;;;;;;32.03;14.07;;;7.50;99.90;;;;;;5074509;28;20044;-64
2023/12/18 10:48:41;;;;;;;41.08;17.50;;;7.50;99.90;;;;;;5075719;28;20385;-64
2023/12/18 10:51:08;;;;;;;39.67;18.17;;;7.50;99.90;;;;;;5073537;28;20141;-63
2023/12/18 10:53:36;;;;;;;34.38;18.23;;;7.50;99.90;;;;;;5072264;28;20048;-63
2023/12/18 10:56:06;;;;;;;42.15;30.15;;;7.50;99.90;;;;;;5072283;28;20043;-63
2023/12/18 10:58:34;;;;;;;41.83;19.27;;;7.50;99.90;;;;;;5074611;28;20060;-63
2023/12/18 11:01:03;;;;;;;37.35;18.02;;;7.60;99.90;;;;;;5072189;28;20123;-63
2023/12/18 11:03:29;;;;;;;29.02;15.30;;;7.50;99.90;;;;;;5073984;28;20036;-63
2023/12/18 11:05:56;;;;;;;36.67;17.88;;;7.50;99.90;;;;;;5076108;28;20048;-63
2023/12/18 11:08:23;;;;;;;37.88;18.58;;;7.50;99.90;;;;;;5058867;28;20039;-63
2023/12/18 11:10:49;;;;;;;43.03;30.40;;;7.60;99.90;;;;;;5075427;28;20350;-63
2023/12/18 11:13:24;;;;;;;45.08;30.50;;;7.60;99.90;;;;;;5076648;28;20039;-63
2023/12/18 11:16:32;;;;;;;36.28;16.70;;;7.60;99.90;;;;;;5076759;28;20135;-63
2023/12/18 11:19:19;;;;;;;33.63;16.50;;;7.60;99.90;;;;;;5046185;28;20040;-63
2023/12/18 11:21:48;;;;;;;50.90;16.33;;;7.60;99.90;;;;;;5075284;28;20051;-63
2023/12/18 11:24:15;;;;;;;36.92;19.17;;;7.70;99.90;;;;;;5072155;28;20431;-63
2023/12/18 11:26:43;;;;;;;32.25;16.25;;;7.60;99.90;;;;;;5076883;28;20066;-64
2023/12/18 11:29:51;;;;;;;37.92;16.90;;;7.60;99.90;;;;;;5076727;28;20051;-64
2023/12/18 11:32:40;;;;;;;31.75;17.52;;;7.70;99.90;;;;;;5070618;28;20060;-64
2023/12/18 11:35:10;;;;;;;40.63;16.67;;;7.70;99.90;;;;;;5075731;28;20047;-64
2023/12/18 11:37:49;;;;;;;33.75;17.38;;;7.70;99.90;;;;;;5077333;28;20032;-63
2023/12/18 11:40:35;;;;;;;44.70;17.08;;;7.80;99.90;;;;;;5077659;28;20052;-63
2023/12/18 11:43:02;;;;;;;37.88;16.95;;;7.80;99.90;;;;;;5088911;28;20082;-63
2023/12/18 11:45:31;;;;;;;37.90;17.05;;;7.80;99.90;;;;;;5087898;28;20086;-63
2023/12/18 11:48:04;;;;;;;26.80;13.43;;;7.90;99.90;;;;;;5100712;28;20036;-64
2023/12/18 11:50:34;;;;;;;38.85;14.15;;;7.90;99.90;;;;;;5108044;28;20040;-63
2023/12/18 11:53:00;;;;;;;33.70;15.23;;;7.90;99.90;;;;;;5094981;28;20040;-63
2023/12/18 11:55:45;;;;;;;42.47;17.77;;;7.90;99.90;;;;;;5089861;28;20032;-64
2023/12/18 11:58:11;;;;;;;33.60;17.73;;;7.90;99.90;;;;;;5085243;28;20074;-64
2023/12/18 12:00:38;;;;;;;22.92;12.93;;;7.90;99.90;;;;;;5089755;28;20477;-63
2023/12/18 12:03:04;;;;;;;35.65;17.05;;;7.90;99.90;;;;;;5096422;28;20044;-64
2023/12/18 12:05:35;;;;;;;49.55;27.10;;;7.90;99.90;;;;;;5113799;28;20042;-64
2023/12/18 12:08:01;;;;;;;41.80;27.05;;;8.00;99.90;;;;;;5096379;28;20036;-64
2023/12/18 12:10:27;;;;;;;42.10;26.73;;;8.00;99.90;;;;;;5092790;28;20024;-64
2023/12/18 12:12:54;;;;;;;46.63;27.35;;;8.00;99.90;;;;;;5083642;28;20080;-64
2023/12/18 12:15:24;;;;;;;28.02;14.05;;;8.00;99.90;;;;;;5090801;28;20047;-63
2023/12/18 12:18:06;;;;;;;28.02;14.75;;;8.10;99.90;;;;;;5098803;28;20036;-64
2023/12/18 12:20:32;;;;;;;34.40;24.17;;;8.10;99.90;;;;;;5110350;28;20028;-64
2023/12/18 12:22:58;;;;;;;36.40;25.02;;;8.10;99.90;;;;;;5113125;28;20392;-64
2023/12/18 12:25:24;;;;;;;38.67;24.98;;;8.10;99.90;;;;;;5113734;28;20492;-64
2023/12/18 12:27:51;;;;;;;36.42;25.67;;;8.10;99.90;;;;;;5112454;28;20055;-64
2023/12/18 12:30:17;;;;;;;25.20;14.75;;;8.10;99.90;;;;;;5100169;28;20036;-64
2023/12/18 12:32:44;;;;;;;34.42;15.68;;;8.10;99.90;;;;;;5111281;28;20641;-63